Kezdőlap
METAR-TAF:

METAR-TAF

Repülőterek :

Quentin Aanenson Field

Luverne, Minnesota, Amerikai Egyesült Államok

földrajzi szélesség: 43-37-16N, földrajzi hosszúság: 096-12-58W, magasság: 436 m

Jelenlegi meteorológiai megfigyelések

A jelentés 14 perccel ezelõtt készült, 08:56 UTC
Kelet-északkeleti szél 4 kt
Hőmérséklet -7°C
Páratartalom 86%
Légköri nyomás 1020 hPa
Látótávolság: 16.1 km
Borult 7500 lábon

METAR: KLYV 270856Z AUTO 07004KT 10SM OVC075 M07/M09 A3011 RMK AO2

Idő: 03:10 (09:10 UTC)


TAF: hiányzik

Meteorológiai megfigyelések és előrejelzések több, mint 4000 repülőtéren (METAR és TAF jelentéseket).

A térképen piros és sárga pontok jelzik az elérhető meteorológiai állomásokat.

Mozgassa az egeret a pont fölött, hogy megjelenjen az állomás neve.

Azután kattintson az időjárási megfigyelések és előrejelzések megtekintéséhez.

A térkép megváltoztatása: kattintson a fekete keresztel jelölt zöld gombra ráközelítéshez, a vonallal jelölt zöld gombra távolításhoz, vagy a zöld nyilakra a szomszédos térképek eléréséhez.


METAR-TAF: